SJYM weather

Bala Airport
Pacaraima, Roraima, Brazil

Public forecast

Using degrees Celsius for public forecast. Weather courtesy of forecast.io.

Closest aviation weather report (METAR) to Bala Airport

Report is more than 6 hours old.

Closest report is Santa Elena de Uairen Airport, 54.1 nm (100.2 km) NW. Retrieved 2018/10/29 02:00 UTC (1 year ago):

SVSE 290200Z /////KT 9999 SCT017 26/// Q1013

Closest aviation forecast (TAF) to Bala Airport

Closest forecast is Lethem Airport, 56.2 nm (104.0 km) ESE. Retrieved 2020/02/24 12:00 UTC (5 hours ago):

TAF SYLT 241100Z 2412/2424 06010KT 9999 SCT018 BKN090